createdAt,value
2023-04-16T15:03:34.723Z,34.06
2023-04-16T15:05:36.756Z,32.41
2023-04-16T15:07:38.529Z,34.07
2023-04-16T15:11:19.020Z,33.12
2023-04-16T15:13:20.729Z,33.05
2023-04-16T15:15:22.623Z,33.34
2023-04-16T15:17:24.391Z,33.39
2023-04-16T15:19:26.125Z,33.06
2023-04-16T15:21:28.056Z,32.95
2023-04-16T15:23:29.802Z,33.07
2023-04-16T15:30:52.406Z,60.69
2023-04-16T15:32:55.055Z,57.91
2023-04-16T15:34:56.879Z,47.99
2023-04-16T15:36:58.577Z,48.64
2023-04-16T15:39:00.493Z,52.09
2023-04-16T15:41:02.304Z,54.31
2023-04-16T15:43:05.808Z,56.34
2023-04-16T15:45:07.725Z,57.95
2023-04-16T15:47:09.576Z,59.34
2023-04-16T15:49:11.532Z,59.68
2023-04-16T15:55:03.598Z,61.29
2023-04-16T16:00:13.921Z,61.99
2023-04-16T16:05:16.841Z,63.07
2023-04-16T16:10:20.239Z,63.12
2023-04-16T16:15:22.477Z,64.01
2023-04-16T16:20:25.346Z,63.61
2023-04-16T16:25:27.328Z,64.47
2023-04-16T16:30:29.261Z,64.42
2023-04-16T16:35:31.453Z,64.42
2023-04-16T16:40:33.281Z,65.56
2023-04-16T16:45:35.046Z,65.80
2023-04-16T16:50:36.772Z,66.91
2023-04-16T16:55:38.535Z,67.82
2023-04-16T17:00:40.559Z,69.39
2023-04-16T17:05:42.384Z,70.29
2023-04-16T17:10:44.087Z,70.49
2023-04-16T17:15:46.658Z,70.03
2023-04-16T17:20:48.523Z,71.01
2023-04-16T17:25:50.993Z,72.04
2023-04-16T17:30:54.163Z,72.97
2023-04-16T17:35:55.904Z,72.30
2023-04-16T17:40:57.955Z,72.79
2023-04-16T17:45:59.774Z,73.44
2023-04-16T17:51:11.773Z,74.02
2023-04-16T17:56:14.317Z,74.14
2023-04-16T18:01:16.156Z,73.68
2023-04-16T18:06:17.995Z,74.53
2023-04-16T18:11:19.738Z,74.93
2023-04-16T18:16:22.869Z,74.48
2023-04-16T18:21:24.907Z,74.81
2023-04-16T18:26:29.652Z,75.74
2023-04-16T18:31:32.011Z,76.66
2023-04-16T18:36:36.578Z,76.58
2023-04-16T18:41:40.127Z,77.08
2023-04-16T18:46:46.137Z,77.33
2023-04-16T18:51:48.367Z,77.23
2023-04-16T18:56:57.765Z,77.36
2023-04-16T19:02:00.946Z,78.38
2023-04-16T19:07:02.746Z,78.56
2023-04-16T19:12:04.691Z,77.64
2023-04-16T19:17:06.483Z,78.16
2023-04-16T19:22:08.380Z,77.50
2023-04-16T19:27:10.445Z,77.54
2023-04-16T19:32:14.045Z,78.07
2023-04-16T19:37:16.117Z,77.27
2023-04-16T19:42:17.900Z,78.63
2023-04-16T19:47:20.112Z,78.86
2023-04-16T19:52:21.856Z,78.80
2023-04-16T19:57:23.727Z,79.79
2023-04-16T20:02:25.603Z,79.50
2023-04-16T20:10:54.171Z,79.51
2023-04-16T20:16:47.781Z,79.93
2023-04-16T20:21:49.623Z,79.60
2023-04-16T20:26:51.554Z,79.08
2023-04-16T20:31:53.532Z,79.52
2023-04-16T20:36:55.328Z,79.53
2023-04-16T20:41:57.190Z,78.52
2023-04-16T20:47:02.291Z,79.31
2023-04-16T20:52:05.175Z,78.90
2023-04-16T20:57:07.696Z,78.93
2023-04-16T21:02:09.690Z,78.94
2023-04-16T21:07:11.793Z,79.57
2023-04-16T21:12:13.661Z,79.75
2023-04-16T21:17:15.429Z,79.21
2023-04-16T21:22:17.412Z,79.14
2023-04-16T21:27:19.367Z,79.38
2023-04-16T21:32:21.270Z,79.04
2023-04-16T21:37:23.138Z,79.56
2023-04-16T21:42:25.004Z,79.82
2023-04-16T21:47:26.825Z,79.58
2023-04-16T21:52:28.849Z,79.77
2023-04-16T21:57:30.684Z,80.24
2023-04-16T22:02:34.116Z,80.68
2023-04-16T22:07:36.874Z,80.88
2023-04-16T22:12:39.937Z,80.52
2023-04-16T22:17:43.136Z,81.25
2023-04-16T22:22:44.974Z,81.31
2023-04-16T22:27:46.972Z,81.45
2023-04-16T22:32:48.892Z,81.92
2023-04-16T22:37:50.832Z,81.89
2023-04-16T22:42:52.788Z,82.17
2023-04-16T22:47:54.782Z,82.44
2023-04-16T22:52:56.608Z,82.24
2023-04-16T22:57:58.412Z,83.09
2023-04-16T23:03:01.945Z,82.78
2023-04-16T23:08:04.053Z,83.03
2023-04-16T23:13:05.880Z,83.20
2023-04-16T23:18:07.734Z,83.36
2023-04-16T23:23:09.528Z,83.45
2023-04-16T23:28:11.371Z,83.58
2023-04-16T23:33:13.151Z,83.35
2023-04-16T23:38:14.924Z,82.86
2023-04-16T23:43:16.878Z,82.67
2023-04-16T23:48:18.679Z,82.66
2023-04-16T23:53:20.446Z,81.67
2023-04-16T23:58:22.247Z,81.98
